x

Diamond Shoals (41025) Wave Buoy

12:50pm - Sun 25th Jan 2015 All times are EST. -5 hours from GMT.

  • Sig Wave height 4.9ft
  • Swell Direction
  • Peak Period 10s
  • Average Period 6s
  • Wind
    7mph, 11mph gusts
  • Sea Temp 69°f
  • Air Temp 47°f
  • Sea Pressure 1013.8mb
  • Diamond Shoals
  • Diamond Shoals

More Historic Weather Station data

Upgrade to MSW Pro to gain access to the past 30 days of data for over 8000 Wavebouys and Weather Stations around the globe.

Join Pro

Comparision Forecast

View Surf forecast
   
Sun 01/25 12:50pm 5ft 10s 6s 7 11 mph 1013.8mb 69f 47f
11:50am 4.5ft 10s 6s 7 13 mph 1014.3mb 69f 47f
10:50am 5.5ft 10s 6s 11 16 mph 1015.6mb 69f 47f
9:50am 5ft 10s 5s 16 20 mph 1014.5mb 70f 48f
8:50am 6ft 11s 5s 18 25 mph 1013.9mb 70f 48f
7:50am 7ft 10s 6s 20 27 mph 1013.1mb 70f 48f
6:50am 6ft 5s 5s 22 29 mph 1012.2mb 70f 48f
5:50am 6.5ft 11s 5s 27 34 mph 1011.2mb 70f 48f
4:50am 7ft 11s 5s 25 31 mph 1009.9mb 71f 48f
3:50am 8ft 10s 6s 27 34 mph 1009.7mb 71f 49f
2:50am 7.5ft 11s 6s 27 34 mph 1009.2mb 71f 50f
1:50am 7.5ft 11s 6s 31 38 mph 1008.6mb 71f 51f
12:50am 8.5ft 11s 6s 27 34 mph 1008.1mb 71f 52f
Sat 01/24 11:50pm 9ft 11s 6s 29 38 mph 1007.3mb 71f 52f
10:50pm 8.5ft 10s 6s 29 36 mph 1006.9mb 71f 53f
9:50pm 8.5ft 10s 6s 27 31 mph 1006.4mb 71f 52f
8:50pm 9ft 5s 6s 25 31 mph 1006.1mb 71f 51f
7:50pm 9.5ft 11s 6s 25 31 mph 1005.5mb 71f 50f
6:50pm 9.5ft 10s 6s 29 38 mph 1004.3mb 71f 50f
5:50pm 10ft 11s 7s 29 36 mph 1002.7mb 71f 50f
4:50pm 11ft 10s 6s 29 36 mph 1000.6mb 71f 49f
3:50pm 13ft 11s 7s 31 38 mph 999.1mb 72f 49f
2:50pm 11.5ft 11s 7s 34 43 mph 998mb 72f 49f
1:50pm 13.5ft 11s 8s 20 27 mph 996.3mb 72f 51f
12:50pm 14ft 11s 8s 22 29 mph 996.4mb 72f 52f
11:50am 13ft 11s 8s 18 25 mph 995.7mb 73f 54f
10:50am 16.5ft 11s 8s 22 29 mph 995.1mb 73f -
9:50am 19.5ft 11s 8s 38 49 mph 993.6mb 73f 69f
8:50am  -   -   -  34 43 mph 995.2mb 73f 70f
7:50am 18.5ft 10s 8s 22 29 mph 997.3mb 73f 68f
6:50am 21ft 11s 8s 34 40 mph 998.5mb 73f 68f
5:50am 21.5ft 9s 8s 40 56 mph 998mb 73f 69f
4:50am 19.5ft 10s 8s 43 56 mph 997.9mb 73f 69f
3:50am 18ft 10s 8s 38 49 mph 1000.5mb 73f 67f
2:50am 14.5ft 10s 7s 38 45 mph 1002.5mb 73f 68f
1:50am 15ft 9s 7s 40 51 mph 1004.3mb 73f 69f
12:50am 12.5ft 8s 6s 40 51 mph 1006.3mb 73f 70f
Fri 01/23 11:50pm 11ft 7s 6s 40 47 mph 1008.3mb 73f 70f
10:50pm 9ft 7s 6s 38 45 mph 1010.2mb 74f 66f
9:50pm 7.5ft 6s 5s 34 40 mph 1012.2mb 74f 64f
8:50pm 6ft 6s 5s 31 40 mph 1013.7mb 74f 64f
7:50pm 5ft 5s 4s 29 36 mph 1015.5mb 74f 64f
6:50pm 4.5ft 9s 5s 27 34 mph 1016.7mb 73f 63f
5:50pm 4ft 9s 5s 22 29 mph 1018.5mb 73f 61f
4:50pm 3.5ft 9s 5s 18 22 mph 1019.4mb 73f 61f
3:50pm 3.5ft 9s 5s 16 20 mph 1020.2mb 73f 61f
2:50pm 4.5ft 9s 6s 11 16 mph 1020.7mb 73f 60f
1:50pm 4.5ft 9s 6s 11 16 mph 1021.6mb 73f 59f
12:50pm 4ft 7s 6s 13 18 mph 1022.6mb 73f 59f
11:50am 4ft 8s 6s 9 13 mph 1024.4mb 73f 58f
10:50am 4.5ft 8s 6s 9 16 mph 1025.2mb 73f 57f
9:50am 4.5ft 8s 6s 11 18 mph 1025.8mb 73f 56f
8:50am 4.5ft 8s 6s 16 20 mph 1025.6mb 73f 54f
7:50am 4.5ft 6s 6s 16 20 mph 1026.1mb 73f 53f
6:50am 4.5ft 8s 6s 16 22 mph 1026.6mb 73f 53f
5:50am 4.5ft 6s 6s 18 22 mph 1026.7mb 73f 53f
4:50am 4.5ft 8s 6s 18 22 mph 1026.5mb 73f 53f
3:50am 5ft 8s 6s 18 22 mph 1026.2mb 73f 53f
2:50am 5ft 8s 6s 20 25 mph 1026.3mb 73f 53f
1:50am 5ft 8s 6s 16 22 mph 1026.7mb 73f 53f
12:50am 5ft 8s 6s 18 22 mph 1026.1mb 73f 53f
Thu 01/22 11:50pm 5ft 9s 6s 20 25 mph 1026.3mb 73f 53f
10:50pm 5ft 9s 6s 18 22 mph 1026.6mb 74f 53f
9:50pm 5ft 9s 6s 18 22 mph 1026.8mb 74f 53f
8:50pm 5ft 9s 7s 18 22 mph 1026.5mb 74f 53f
7:50pm 5ft 9s 7s 20 25 mph 1026.4mb 74f 52f
6:50pm 5ft 9s 8s 18 22 mph 1026.5mb 74f 54f
5:50pm 6ft 10s 8s 11 13 mph 1025.8mb 74f 56f
4:50pm 6ft 10s 8s 9 13 mph 1025.4mb 74f 56f
3:50pm 6.5ft 10s 9s 9 13 mph 1025mb 74f 56f
2:50pm 5.5ft 9s 8s 11 16 mph 1024.9mb 74f 55f
1:50pm 5.5ft 10s 8s 9 11 mph 1024.8mb 73f 54f
12:50pm 6ft 9s 8s 9 11 mph 1025.3mb 74f 53f
11:50am 6.5ft 10s 8s 9 11 mph 1025.4mb 73f 53f
10:50am 6ft 9s 7s 11 13 mph 1025.5mb 70f 52f
9:50am 4.5ft 8s 6s 11 13 mph 1025.4mb 71f 51f
8:50am 4.5ft 7s 6s 13 16 mph 1024.5mb 70f 51f
7:50am 4ft 7s 6s 16 20 mph 1023.8mb 70f 51f
6:50am 3.5ft 8s 5s 13 18 mph 1022.8mb 69f 52f
5:50am 4ft 7s 5s 18 20 mph 1022.1mb 69f 53f
4:50am 4ft 7s 5s 20 25 mph 1021.7mb 68f 52f
3:50am 4.5ft 7s 5s 20 27 mph 1021.1mb 69f 52f
2:50am 4.5ft 7s 5s 20 25 mph 1020.9mb 69f 51f
1:50am 4.5ft 6s 5s 20 25 mph 1020.4mb 69f 52f
12:50am 4.5ft 6s 5s 22 27 mph 1020mb 69f 50f
Wed 01/21 11:50pm 4.5ft 5s 5s 22 29 mph 1020.1mb 69f 50f
10:50pm 5ft 6s 5s 22 29 mph 1019.7mb 70f 50f
9:50pm 5ft 6s 5s 22 27 mph 1018.9mb 69f 50f
8:50pm 4.5ft 6s 5s 25 27 mph 1017.9mb 69f 50f
7:50pm 4ft 6s 4s 22 29 mph 1017.3mb 69f 51f
6:50pm 3.5ft 11s 4s 22 25 mph 1016.4mb 69f 53f